createdAt,value
2022-12-08T00:01:14.536Z,101236.00
2022-12-08T00:03:41.998Z,101226.31
2022-12-08T00:06:38.142Z,101218.50
2022-12-08T00:09:22.509Z,101215.69
2022-12-08T00:11:53.166Z,101208.84
2022-12-08T00:14:22.250Z,101211.28
2022-12-08T00:16:49.789Z,101203.31
2022-12-08T00:19:16.197Z,101194.56
2022-12-08T00:21:42.554Z,101200.28
2022-12-08T00:24:09.024Z,101211.25
2022-12-08T00:26:36.783Z,101204.94
2022-12-08T00:29:03.484Z,101206.56
2022-12-08T00:31:30.099Z,101198.88
2022-12-08T00:33:56.575Z,101202.25
2022-12-08T00:36:22.936Z,101192.09
2022-12-08T00:38:49.371Z,101189.66
2022-12-08T00:41:18.148Z,101185.31
2022-12-08T00:43:44.625Z,101178.59
2022-12-08T00:46:12.044Z,101177.91
2022-12-08T00:48:39.135Z,101171.50
2022-12-08T00:51:05.658Z,101165.81
2022-12-08T00:53:32.259Z,101165.13
2022-12-08T00:55:58.747Z,101160.22
2022-12-08T00:58:25.125Z,101159.63
2022-12-08T01:00:51.697Z,101149.66
2022-12-08T01:03:18.243Z,101149.75
2022-12-08T01:05:44.706Z,101145.56
2022-12-08T01:08:11.188Z,101137.88
2022-12-08T01:10:39.509Z,101145.56
2022-12-08T01:13:06.240Z,101139.50
2022-12-08T01:15:32.614Z,101146.13
2022-12-08T01:17:59.010Z,101147.66
2022-12-08T01:20:25.388Z,101146.44
2022-12-08T01:22:51.729Z,101145.28
2022-12-08T01:25:18.148Z,101138.25
2022-12-08T01:27:44.510Z,101141.50
2022-12-08T01:30:11.370Z,101136.38
2022-12-08T01:32:37.772Z,101135.59
2022-12-08T01:35:04.269Z,101141.50
2022-12-08T01:37:30.809Z,101139.91
2022-12-08T01:39:57.159Z,101152.50
2022-12-08T01:42:24.743Z,101157.38
2022-12-08T01:44:58.254Z,101157.22
2022-12-08T01:47:29.734Z,101141.72
2022-12-08T01:49:56.287Z,101136.59
2022-12-08T01:52:29.132Z,101136.59
2022-12-08T01:55:15.512Z,101137.53
2022-12-08T01:57:47.796Z,101127.28
2022-12-08T02:00:17.066Z,101131.56
2022-12-08T02:02:52.926Z,101131.72
2022-12-08T02:05:22.618Z,101133.69
2022-12-08T02:07:49.730Z,101131.25
2022-12-08T02:10:20.386Z,101124.53
2022-12-08T02:12:48.232Z,101119.38
2022-12-08T02:15:15.330Z,101111.44
2022-12-08T02:17:58.189Z,101113.19
2022-12-08T02:20:37.857Z,101105.38
2022-12-08T02:23:23.587Z,101111.06
2022-12-08T02:26:06.816Z,101097.28
2022-12-08T02:29:00.470Z,101101.63
2022-12-08T02:32:04.510Z,101101.06
2022-12-08T02:35:00.330Z,101090.09
2022-12-08T02:37:29.583Z,101088.34
2022-12-08T02:40:07.197Z,101089.84
2022-12-08T02:42:39.949Z,101091.38
2022-12-08T02:45:14.815Z,101086.22
2022-12-08T02:47:41.262Z,101092.16
2022-12-08T02:50:08.226Z,101075.97
2022-12-08T02:52:34.501Z,101080.25
2022-12-08T02:55:06.530Z,101074.34
2022-12-08T02:58:10.155Z,101058.81
2022-12-08T03:00:53.650Z,101055.44
2022-12-08T03:03:35.724Z,101060.56
2022-12-08T03:06:32.423Z,101058.69
2022-12-08T03:09:14.247Z,101053.56
2022-12-08T03:11:48.524Z,101049.22
2022-12-08T03:14:17.371Z,101059.38
2022-12-08T03:16:48.605Z,101060.09
2022-12-08T03:19:23.862Z,101065.09
2022-12-08T03:22:02.692Z,101053.88
2022-12-08T03:24:36.147Z,101057.13
2022-12-08T03:27:07.150Z,101060.38
2022-12-08T03:29:34.271Z,101059.31
2022-12-08T03:32:11.382Z,101045.53
2022-12-08T03:34:40.241Z,101040.41
2022-12-08T03:37:07.025Z,101025.81
2022-12-08T03:39:33.453Z,101026.66
2022-12-08T03:41:59.818Z,101022.44
2022-12-08T03:44:26.258Z,101015.56
2022-12-08T03:46:52.689Z,101014.75
2022-12-08T03:49:19.041Z,101016.38
2022-12-08T03:51:45.419Z,101018.25
2022-12-08T03:54:11.775Z,101012.44
2022-12-08T03:56:39.544Z,101006.50
2022-12-08T03:59:07.399Z,101000.53
2022-12-08T04:01:34.266Z,101010.13
2022-12-08T04:04:00.791Z,101019.59
2022-12-08T04:06:27.674Z,101016.91
2022-12-08T04:08:54.456Z,101016.22
2022-12-08T04:11:21.068Z,101018.63
2022-12-08T04:13:47.810Z,101010.13
2022-12-08T04:16:24.873Z,101012.69
2022-12-08T04:18:51.349Z,101000.94
2022-12-08T04:21:18.135Z,100999.44
2022-12-08T04:23:44.961Z,101003.75
2022-12-08T04:26:11.773Z,101010.63
2022-12-08T04:28:38.591Z,100993.63
2022-12-08T04:31:05.484Z,101003.19
2022-12-08T04:33:31.989Z,101001.56
2022-12-08T04:35:58.451Z,100999.81
2022-12-08T04:38:24.908Z,100992.91
2022-12-08T04:40:51.403Z,100991.31
2022-12-08T04:43:17.829Z,100981.84
2022-12-08T04:45:44.231Z,100980.09
2022-12-08T04:48:13.149Z,100980.09
2022-12-08T04:50:44.717Z,100993.75
2022-12-08T04:53:12.325Z,100981.72
2022-12-08T04:55:41.213Z,100983.38
2022-12-08T04:58:12.300Z,100984.16
2022-12-08T05:00:38.703Z,100985.81
2022-12-08T05:03:05.378Z,100996.88
2022-12-08T05:05:31.848Z,100992.41
2022-12-08T05:07:58.362Z,100999.19
2022-12-08T05:10:24.853Z,100987.03
2022-12-08T05:12:51.238Z,100988.00
2022-12-08T05:15:17.981Z,100994.72
2022-12-08T05:17:44.484Z,100990.69
2022-12-08T05:20:11.415Z,100986.47
2022-12-08T05:22:37.786Z,100986.47
2022-12-08T05:25:04.431Z,100985.69
2022-12-08T05:27:30.790Z,100985.81
2022-12-08T05:29:57.171Z,100997.78
2022-12-08T05:32:23.550Z,100991.19
2022-12-08T05:34:50.100Z,100986.97
2022-12-08T05:37:16.643Z,100995.59
2022-12-08T05:39:43.088Z,100986.97
2022-12-08T05:42:09.657Z,100979.41
2022-12-08T05:44:36.126Z,100971.72
2022-12-08T05:47:02.699Z,100976.03
2022-12-08T05:49:29.195Z,100973.59
2022-12-08T05:51:55.579Z,100966.03
2022-12-08T05:54:22.137Z,100968.47
2022-12-08T05:56:49.202Z,100962.53
2022-12-08T05:59:16.613Z,100963.47
2022-12-08T06:01:43.047Z,100970.13
2022-12-08T06:04:10.372Z,100968.34
2022-12-08T06:06:37.029Z,100968.34
2022-12-08T06:09:04.824Z,100965.91
2022-12-08T06:11:32.156Z,100962.53
2022-12-08T06:13:59.004Z,100966.03
2022-12-08T06:16:27.038Z,100955.78
2022-12-08T06:18:53.876Z,100953.09
2022-12-08T06:21:20.737Z,100961.59
2022-12-08T06:23:52.502Z,100957.53
2022-12-08T06:26:19.893Z,100955.91
2022-12-08T06:28:46.853Z,100949.25
2022-12-08T06:31:16.378Z,100960.47
2022-12-08T06:33:43.123Z,100962.38
2022-12-08T06:36:12.747Z,100958.97
2022-12-08T06:38:43.333Z,100965.84
2022-12-08T06:41:11.284Z,100960.19
2022-12-08T06:43:37.772Z,100976.50
2022-12-08T06:46:06.388Z,100976.63
2022-12-08T06:48:32.868Z,100977.66
2022-12-08T06:51:13.107Z,100968.63
2022-12-08T06:53:40.464Z,100967.81
2022-12-08T06:56:07.512Z,100963.75
2022-12-08T06:58:34.264Z,100964.53
2022-12-08T07:01:09.658Z,100965.63
2022-12-08T07:03:37.290Z,100969.13
2022-12-08T07:06:04.798Z,100961.44
2022-12-08T07:08:32.972Z,100964.22
2022-12-08T07:10:59.790Z,100960.88
2022-12-08T07:13:26.320Z,100961.78
2022-12-08T07:15:55.029Z,100966.38
2022-12-08T07:18:21.467Z,100967.28
2022-12-08T07:20:48.032Z,100973.38
2022-12-08T07:23:14.839Z,100970.13
2022-12-08T07:25:41.237Z,100966.84
2022-12-08T07:28:09.304Z,100966.19
2022-12-08T07:30:35.795Z,100963.88
2022-12-08T07:33:04.568Z,100966.44
2022-12-08T07:35:31.021Z,100961.31
2022-12-08T07:37:57.754Z,100970.75
2022-12-08T07:40:24.165Z,100961.41
2022-12-08T07:42:50.709Z,100965.75
2022-12-08T07:45:17.205Z,100964.91
2022-12-08T07:47:43.745Z,100962.50
2022-12-08T07:50:10.264Z,100963.44
2022-12-08T07:52:36.941Z,100963.44
2022-12-08T07:55:03.522Z,100964.22
2022-12-08T07:57:29.955Z,100960.06
2022-12-08T07:59:56.320Z,100969.47
2022-12-08T08:02:25.567Z,100968.56
2022-12-08T08:04:53.203Z,100964.47
2022-12-08T08:07:19.891Z,100962.75
2022-12-08T08:09:46.297Z,100957.63
2022-12-08T08:15:00.430Z,100965.31
2022-12-08T08:17:26.951Z,100962.75
2022-12-08T08:19:53.473Z,100971.91
2022-12-08T08:22:20.016Z,100970.88
2022-12-08T08:24:46.367Z,100973.44
2022-12-08T08:27:12.916Z,100973.31
2022-12-08T08:29:39.614Z,100979.25
2022-12-08T08:32:06.103Z,100977.47
2022-12-08T08:34:32.460Z,100988.56
2022-12-08T08:36:58.932Z,100987.63
2022-12-08T08:39:25.576Z,100988.31
2022-12-08T08:41:52.161Z,100982.25
2022-12-08T08:44:18.847Z,100987.25
2022-12-08T08:46:45.309Z,100986.44
2022-12-08T08:49:11.782Z,100987.38
2022-12-08T08:51:38.202Z,100983.88
2022-12-08T08:54:04.794Z,100978.63
2022-12-08T08:56:31.356Z,100981.31
2022-12-08T08:58:57.875Z,100972.00
2022-12-08T09:01:27.852Z,100972.00
2022-12-08T09:03:55.589Z,100971.75
2022-12-08T09:06:23.383Z,100973.25
2022-12-08T09:08:50.836Z,100983.38
2022-12-08T09:11:18.634Z,100977.56
2022-12-08T09:13:49.163Z,100975.56
2022-12-08T09:16:16.689Z,100987.31
2022-12-08T09:18:43.603Z,100976.00
2022-12-08T09:21:14.940Z,100974.81
2022-12-08T09:23:41.339Z,100978.06
2022-12-08T09:26:08.274Z,100984.69
2022-12-08T09:28:34.760Z,100983.63
2022-12-08T09:31:01.213Z,100978.50
2022-12-08T09:33:27.814Z,100980.22
2022-12-08T09:35:54.214Z,100981.06
2022-12-08T09:38:20.780Z,100988.75
2022-12-08T09:40:52.436Z,100982.69
2022-12-08T09:43:26.899Z,100985.38
2022-12-08T09:45:54.933Z,100984.31
2022-12-08T09:48:45.362Z,100979.06
2022-12-08T09:51:14.724Z,100985.81
2022-12-08T09:53:48.315Z,100981.63
2022-12-08T09:56:36.645Z,100984.06
2022-12-08T09:59:16.848Z,100987.44
2022-12-08T10:01:43.333Z,100993.16
2022-12-08T10:04:32.409Z,100983.44
2022-12-08T10:07:20.740Z,100982.09
2022-12-08T10:09:55.537Z,100981.72
2022-12-08T10:12:40.319Z,100978.22
2022-12-08T10:15:27.044Z,100969.44
2022-12-08T10:17:54.810Z,100977.28
2022-12-08T10:20:25.321Z,100972.03
2022-12-08T10:23:20.965Z,100971.75
2022-12-08T10:25:50.085Z,100982.56
2022-12-08T10:28:16.529Z,100973.16
2022-12-08T10:30:43.330Z,100971.38
2022-12-08T10:33:19.883Z,100960.44
2022-12-08T10:36:06.116Z,100966.38
2022-12-08T10:38:35.486Z,100960.16
2022-12-08T10:41:11.034Z,100955.81
2022-12-08T10:43:46.164Z,100956.75
2022-12-08T10:46:16.507Z,100952.31
2022-12-08T10:49:10.421Z,100958.13
2022-12-08T10:51:39.386Z,100949.63
2022-12-08T10:54:24.324Z,100951.13
2022-12-08T10:56:55.479Z,100945.06
2022-12-08T10:59:21.959Z,100945.31
2022-12-08T11:01:51.157Z,100954.63
2022-12-08T11:04:20.307Z,100958.81
2022-12-08T11:06:48.619Z,100955.06
2022-12-08T11:09:17.995Z,100951.53
2022-12-08T11:11:58.193Z,100951.53
2022-12-08T11:14:30.868Z,100946.66
2022-12-08T11:17:05.799Z,100953.28
2022-12-08T11:19:37.672Z,100945.84
2022-12-08T11:22:32.229Z,100943.41
2022-12-08T11:25:27.995Z,100937.59
2022-12-08T11:27:57.845Z,100931.94
2022-12-08T11:30:25.716Z,100925.03
2022-12-08T11:33:13.278Z,100923.16
2022-12-08T11:35:43.797Z,100913.97
2022-12-08T11:38:22.713Z,100907.34
2022-12-08T11:40:57.066Z,100908.84
2022-12-08T11:43:49.713Z,100903.97
2022-12-08T11:46:32.670Z,100904.50
2022-12-08T11:49:06.810Z,100901.69
2022-12-08T11:51:37.852Z,100906.56
2022-12-08T11:54:30.263Z,100897.91
2022-12-08T11:56:58.923Z,100897.91
2022-12-08T11:59:39.491Z,100899.53
2022-12-08T12:02:14.414Z,100889.94
2022-12-08T12:04:49.889Z,100887.25
2022-12-08T12:07:26.180Z,100898.09
2022-12-08T12:10:08.529Z,100880.69
2022-12-08T12:12:59.674Z,100893.13
2022-12-08T12:15:26.048Z,100885.41
2022-12-08T12:18:05.401Z,100884.03
2022-12-08T12:20:41.450Z,100879.31
2022-12-08T12:23:19.379Z,100873.66
2022-12-08T12:25:58.061Z,100878.81
2022-12-08T12:28:27.844Z,100874.59
2022-12-08T12:31:01.180Z,100871.91
2022-12-08T12:33:29.882Z,100874.72
2022-12-08T12:35:58.440Z,100879.72
2022-12-08T12:38:53.126Z,100873.00
2022-12-08T12:41:27.776Z,100869.06
2022-12-08T12:44:28.453Z,100867.97
2022-12-08T12:47:03.174Z,100857.03
2022-12-08T12:49:38.579Z,100859.75
2022-12-08T12:52:18.028Z,100858.53
2022-12-08T12:55:05.355Z,100862.19
2022-12-08T12:57:58.119Z,100863.00
2022-12-08T13:00:27.365Z,100863.38
2022-12-08T13:02:57.672Z,100857.06
2022-12-08T13:05:27.272Z,100858.66
2022-12-08T13:07:57.997Z,100857.34
2022-12-08T13:10:32.392Z,100851.25
2022-12-08T13:13:01.749Z,100853.53
2022-12-08T13:15:38.401Z,100855.41
2022-12-08T13:18:07.460Z,100855.28
2022-12-08T13:20:42.764Z,100864.59
2022-12-08T13:23:27.701Z,100856.75
2022-12-08T13:26:09.374Z,100855.69
2022-12-08T13:28:58.661Z,100854.31
2022-12-08T13:31:37.390Z,100854.88
2022-12-08T13:34:12.786Z,100848.25
2022-12-08T13:36:47.615Z,100852.16
2022-12-08T13:39:25.541Z,100838.09
2022-12-08T13:42:01.072Z,100835.91
2022-12-08T13:48:05.916Z,100851.53
2022-12-08T13:54:16.325Z,100848.00
2022-12-08T13:59:33.928Z,100854.50
2022-12-08T14:02:18.040Z,100860.78
2022-12-08T14:05:17.001Z,100855.41
2022-12-08T14:07:34.195Z,100848.41
2022-12-08T14:10:03.520Z,100854.50
2022-12-08T14:12:31.547Z,100852.59
2022-12-08T14:15:04.382Z,100850.03
2022-12-08T14:17:32.240Z,100857.06
2022-12-08T14:20:24.928Z,100853.28
2022-12-08T14:22:52.447Z,100854.91
2022-12-08T14:25:19.576Z,100857.47
2022-12-08T14:27:47.159Z,100857.47
2022-12-08T14:30:14.043Z,100854.50
2022-12-08T14:32:46.722Z,100853.81
2022-12-08T14:35:39.547Z,100857.84
2022-12-08T14:38:13.578Z,100857.44
2022-12-08T14:40:42.386Z,100854.47
2022-12-08T14:43:08.775Z,100855.91
2022-12-08T14:45:46.048Z,100852.81
2022-12-08T14:48:33.618Z,100849.56
2022-12-08T14:51:03.445Z,100848.88
2022-12-08T14:53:53.238Z,100847.53
2022-12-08T14:56:24.492Z,100856.16
2022-12-08T14:59:09.347Z,100845.47
2022-12-08T15:01:36.860Z,100845.84
2022-12-08T15:04:13.104Z,100842.06
2022-12-08T15:06:59.013Z,100837.22
2022-12-08T15:09:32.551Z,100847.84
2022-12-08T15:12:06.493Z,100847.16
2022-12-08T15:14:35.425Z,100843.09
2022-12-08T15:17:02.723Z,100843.22
2022-12-08T15:19:31.851Z,100845.25
2022-12-08T15:22:09.329Z,100841.03
2022-12-08T15:24:35.783Z,100845.38
2022-12-08T15:27:03.750Z,100843.59
2022-12-08T15:29:30.878Z,100845.38
2022-12-08T15:32:00.272Z,100843.72
2022-12-08T15:34:26.813Z,100848.19
2022-12-08T15:36:54.864Z,100848.88
2022-12-08T15:39:33.632Z,100845.50
2022-12-08T15:42:01.855Z,100855.75
2022-12-08T15:44:29.280Z,100851.44
2022-12-08T15:46:56.096Z,100853.06
2022-12-08T15:49:24.014Z,100856.97
2022-12-08T15:51:55.679Z,100856.84
2022-12-08T15:54:27.183Z,100857.56
2022-12-08T15:57:18.656Z,100852.31
2022-12-08T15:59:43.136Z,100853.22
2022-12-08T16:02:13.725Z,100854.75
2022-12-08T16:07:30.441Z,100851.34
2022-12-08T16:09:57.223Z,100852.44
2022-12-08T16:15:59.092Z,100861.56
2022-12-08T16:18:31.591Z,100854.50
2022-12-08T16:21:31.618Z,100854.19
2022-12-08T16:23:45.822Z,100857.25
2022-12-08T16:26:44.221Z,100844.84
2022-12-08T16:29:05.765Z,100844.56
2022-12-08T16:31:32.645Z,100842.13
2022-12-08T16:33:59.416Z,100834.69
2022-12-08T16:36:25.865Z,100836.66
2022-12-08T16:38:52.308Z,100834.38
2022-12-08T16:41:37.333Z,100838.09
2022-12-08T16:44:05.684Z,100835.91
2022-12-08T16:46:32.244Z,100841.97
2022-12-08T16:48:59.109Z,100841.97
2022-12-08T16:51:27.222Z,100838.59
2022-12-08T16:53:58.314Z,100843.59
2022-12-08T16:56:32.209Z,100835.91
2022-12-08T16:58:59.409Z,100840.13
2022-12-08T17:01:25.846Z,100840.00
2022-12-08T17:04:22.424Z,100845.00
2022-12-08T17:06:38.662Z,100850.53
2022-12-08T17:09:05.502Z,100847.72
2022-12-08T17:11:37.483Z,100844.22
2022-12-08T17:14:09.081Z,100845.84
2022-12-08T17:16:35.668Z,100842.50
2022-12-08T17:19:02.277Z,100839.22
2022-12-08T17:21:28.603Z,100842.88
2022-12-08T17:23:55.072Z,100842.06
2022-12-08T17:26:21.436Z,100836.09
2022-12-08T17:29:03.233Z,100839.03
2022-12-08T17:31:32.046Z,100830.13
2022-12-08T17:34:04.140Z,100836.66
2022-12-08T17:36:30.516Z,100826.09
2022-12-08T17:38:59.358Z,100830.00
2022-12-08T17:41:25.767Z,100830.47
2022-12-08T17:43:52.227Z,100835.84
2022-12-08T17:46:20.384Z,100837.03
2022-12-08T17:48:47.473Z,100835.41
2022-12-08T17:51:14.608Z,100830.41
2022-12-08T17:53:41.178Z,100835.66
2022-12-08T17:56:15.123Z,100832.53
2022-12-08T17:58:41.620Z,100838.25
2022-12-08T18:01:11.696Z,100836.16
2022-12-08T18:03:48.535Z,100829.56
2022-12-08T18:06:15.003Z,100829.31
2022-12-08T18:08:41.337Z,100831.72
2022-12-08T18:11:16.067Z,100831.50
2022-12-08T18:13:42.474Z,100837.22
2022-12-08T18:16:09.014Z,100833.00
2022-12-08T18:18:35.890Z,100832.69
2022-12-08T18:21:02.304Z,100829.09
2022-12-08T18:23:28.783Z,100828.66
2022-12-08T18:25:55.163Z,100829.13
2022-12-08T18:28:21.628Z,100834.13
2022-12-08T18:30:48.072Z,100834.25
2022-12-08T18:33:14.537Z,100830.44
2022-12-08T18:35:41.013Z,100833.00
2022-12-08T18:38:07.476Z,100834.41
2022-12-08T18:40:33.856Z,100824.16
2022-12-08T18:43:00.232Z,100834.50
2022-12-08T18:45:26.664Z,100832.19
2022-12-08T18:47:53.137Z,100835.22
2022-12-08T18:50:19.572Z,100844.16
2022-12-08T18:52:46.503Z,100847.13
2022-12-08T18:55:13.605Z,100835.59
2022-12-08T18:57:42.849Z,100840.94
2022-12-08T19:00:12.600Z,100842.13
2022-12-08T19:02:39.189Z,100846.41
2022-12-08T19:05:06.788Z,100852.09
2022-12-08T19:07:33.183Z,100847.59
2022-12-08T19:09:59.656Z,100853.25
2022-12-08T19:12:26.383Z,100847.69
2022-12-08T19:14:52.806Z,100843.94
2022-12-08T19:17:19.230Z,100841.16
2022-12-08T19:19:45.605Z,100853.59
2022-12-08T19:22:12.344Z,100855.09
2022-12-08T19:24:38.793Z,100859.16
2022-12-08T19:27:05.681Z,100850.44
2022-12-08T19:29:32.215Z,100851.13
2022-12-08T19:32:00.223Z,100846.56
2022-12-08T19:34:27.111Z,100857.38
2022-12-08T19:36:53.726Z,100859.69
2022-12-08T19:39:41.214Z,100869.00
2022-12-08T19:42:38.438Z,100867.97
2022-12-08T19:45:12.425Z,100858.41
2022-12-08T19:47:39.423Z,100854.78
2022-12-08T19:50:26.105Z,100870.13
2022-12-08T19:52:52.653Z,100857.94
2022-12-08T19:55:19.200Z,100860.25
2022-12-08T19:57:45.602Z,100860.94
2022-12-08T20:00:13.002Z,100856.59
2022-12-08T20:02:39.520Z,100857.28
2022-12-08T20:05:06.466Z,100854.50
2022-12-08T20:07:33.144Z,100866.25
2022-12-08T20:09:59.699Z,100862.66
2022-12-08T20:12:26.174Z,100863.44
2022-12-08T20:14:52.874Z,100865.06
2022-12-08T20:17:19.485Z,100882.72
2022-12-08T20:19:45.934Z,100879.38
2022-12-08T20:22:12.385Z,100880.06
2022-12-08T20:24:38.834Z,100871.44
2022-12-08T20:27:05.212Z,100873.88
2022-12-08T20:29:31.786Z,100872.84
2022-12-08T20:31:58.492Z,100872.69
2022-12-08T20:34:24.931Z,100870.00
2022-12-08T20:36:51.342Z,100869.31
2022-12-08T20:39:18.582Z,100880.38
2022-12-08T20:41:46.531Z,100874.22
2022-12-08T20:44:12.952Z,100875.84
2022-12-08T20:46:40.011Z,100880.84
2022-12-08T20:49:08.273Z,100877.44
2022-12-08T20:51:35.213Z,100875.59
2022-12-08T20:54:02.107Z,100884.88
2022-12-08T20:56:28.566Z,100875.34
2022-12-08T20:58:55.973Z,100881.28
2022-12-08T21:01:24.309Z,100874.28
2022-12-08T21:03:52.290Z,100877.53
2022-12-08T21:06:24.544Z,100885.31
2022-12-08T21:08:51.763Z,100888.84
2022-12-08T21:11:18.743Z,100888.72
2022-12-08T21:13:45.440Z,100891.41
2022-12-08T21:16:13.672Z,100891.66
2022-12-08T21:18:41.243Z,100886.78
2022-12-08T21:21:12.202Z,100889.31
2022-12-08T21:23:39.643Z,100888.16
2022-12-08T21:26:21.699Z,100888.16
2022-12-08T21:28:48.534Z,100888.16
2022-12-08T21:31:18.048Z,100885.59
2022-12-08T21:33:45.083Z,100888.97
2022-12-08T21:36:14.048Z,100886.53
2022-12-08T21:38:43.314Z,100888.84
2022-12-08T21:41:15.524Z,100892.88
2022-12-08T21:43:43.216Z,100894.53
2022-12-08T21:46:16.828Z,100887.66
2022-12-08T21:48:43.864Z,100897.88
2022-12-08T21:51:10.627Z,100891.97
2022-12-08T21:53:37.381Z,100891.59
2022-12-08T21:56:08.772Z,100889.41
2022-12-08T21:58:35.361Z,100893.00
2022-12-08T22:01:10.028Z,100893.84
2022-12-08T22:03:39.138Z,100893.72
2022-12-08T22:06:07.926Z,100901.53
2022-12-08T22:08:34.890Z,100893.13
2022-12-08T22:11:01.790Z,100899.78
2022-12-08T22:13:28.377Z,100902.09
2022-12-08T22:16:00.216Z,100903.72
2022-12-08T22:18:27.105Z,100912.22
2022-12-08T22:20:53.971Z,100905.31
2022-12-08T22:23:21.327Z,100905.31
2022-12-08T22:25:58.839Z,100905.31
2022-12-08T22:28:26.537Z,100907.88
2022-12-08T22:30:53.320Z,100906.97
2022-12-08T22:33:20.237Z,100911.84
2022-12-08T22:35:57.552Z,100899.97
2022-12-08T22:38:24.477Z,100898.91
2022-12-08T22:40:51.240Z,100896.47
2022-12-08T22:43:18.274Z,100904.97
2022-12-08T22:45:44.824Z,100896.59
2022-12-08T22:48:11.439Z,100900.66
2022-12-08T22:50:38.247Z,100901.47
2022-12-08T22:53:05.356Z,100898.09
2022-12-08T22:55:31.891Z,100889.72
2022-12-08T22:57:58.268Z,100888.78
2022-12-08T23:00:25.027Z,100888.78
2022-12-08T23:02:51.704Z,100888.78
2022-12-08T23:05:18.499Z,100887.41
2022-12-08T23:07:45.456Z,100889.97
2022-12-08T23:10:12.148Z,100891.03
2022-12-08T23:12:38.948Z,100889.78
2022-12-08T23:15:06.090Z,100885.00
2022-12-08T23:17:32.745Z,100891.22
2022-12-08T23:19:59.246Z,100881.88
2022-12-08T23:22:25.859Z,100889.13
2022-12-08T23:24:52.310Z,100881.25
2022-12-08T23:27:18.764Z,100881.59
2022-12-08T23:29:45.320Z,100882.66
2022-12-08T23:32:11.841Z,100879.41
2022-12-08T23:34:38.482Z,100874.53
2022-12-08T23:37:05.155Z,100876.53
2022-12-08T23:39:31.591Z,100879.88
2022-12-08T23:41:58.322Z,100880.13
2022-12-08T23:44:24.950Z,100868.53
2022-12-08T23:46:51.522Z,100880.63
2022-12-08T23:49:18.157Z,100874.13
2022-12-08T23:51:44.687Z,100875.16
2022-12-08T23:54:11.137Z,100872.28
2022-12-08T23:56:37.803Z,100876.94
2022-12-08T23:59:04.254Z,100874.16
